sensor_id;sensor_type;location;lat;lon;timestamp;pressure;altitude;pressure_sealevel;temperature;humidity
57442;BME280;43284;47.042;15.498;2023-02-04T00:00:50;97190.28;;;2.28;96.32
57442;BME280;43284;47.042;15.498;2023-02-04T00:03:17;97198.56;;;2.46;95.30
57442;BME280;43284;47.042;15.498;2023-02-04T00:05:43;97203.03;;;2.35;93.67
57442;BME280;43284;47.042;15.498;2023-02-04T00:08:09;97203.09;;;2.32;93.92
57442;BME280;43284;47.042;15.498;2023-02-04T00:10:35;97202.91;;;2.44;94.20
57442;BME280;43284;47.042;15.498;2023-02-04T00:13:02;97195.25;;;2.38;93.88
57442;BME280;43284;47.042;15.498;2023-02-04T00:15:28;97184.22;;;2.30;93.22
57442;BME280;43284;47.042;15.498;2023-02-04T00:17:54;97191.28;;;2.16;92.49
57442;BME280;43284;47.042;15.498;2023-02-04T00:20:20;97205.16;;;2.09;93.47
57442;BME280;43284;47.042;15.498;2023-02-04T00:22:46;97200.91;;;2.06;93.81
57442;BME280;43284;47.042;15.498;2023-02-04T00:25:12;97210.34;;;2.05;94.08
57442;BME280;43284;47.042;15.498;2023-02-04T00:27:38;97220.69;;;2.04;94.31
57442;BME280;43284;47.042;15.498;2023-02-04T00:30:04;97210.38;;;2.04;94.58
57442;BME280;43284;47.042;15.498;2023-02-04T00:32:30;97194.94;;;2.01;94.55
57442;BME280;43284;47.042;15.498;2023-02-04T00:34:56;97191.59;;;1.96;94.00
57442;BME280;43284;47.042;15.498;2023-02-04T00:37:22;97194.22;;;1.91;94.66
57442;BME280;43284;47.042;15.498;2023-02-04T00:39:47;97207.13;;;1.91;94.78
57442;BME280;43284;47.042;15.498;2023-02-04T00:42:13;97212.28;;;1.91;94.32
57442;BME280;43284;47.042;15.498;2023-02-04T00:44:39;97219.09;;;1.95;94.11
57442;BME280;43284;47.042;15.498;2023-02-04T00:47:04;97226.97;;;1.83;94.69
57442;BME280;43284;47.042;15.498;2023-02-04T00:49:32;97220.16;;;1.79;95.34
57442;BME280;43284;47.042;15.498;2023-02-04T00:51:58;97227.88;;;1.79;95.61
57442;BME280;43284;47.042;15.498;2023-02-04T00:54:24;97224.47;;;1.77;94.55
57442;BME280;43284;47.042;15.498;2023-02-04T00:56:50;97223.69;;;1.72;95.07
57442;BME280;43284;47.042;15.498;2023-02-04T00:59:16;97228.16;;;1.57;94.58
57442;BME280;43284;47.042;15.498;2023-02-04T01:01:41;97232.34;;;1.68;97.74
57442;BME280;43284;47.042;15.498;2023-02-04T01:04:07;97224.66;;;1.64;95.92
57442;BME280;43284;47.042;15.498;2023-02-04T01:06:33;97220.22;;;1.73;96.46
57442;BME280;43284;47.042;15.498;2023-02-04T01:08:59;97212.59;;;1.67;95.26
57442;BME280;43284;47.042;15.498;2023-02-04T01:11:26;97211.63;;;1.75;93.28
57442;BME280;43284;47.042;15.498;2023-02-04T01:13:52;97185.94;;;1.68;94.14
57442;BME280;43284;47.042;15.498;2023-02-04T01:16:18;97196.38;;;1.58;93.97
57442;BME280;43284;47.042;15.498;2023-02-04T01:18:44;97210.19;;;1.53;94.25
57442;BME280;43284;47.042;15.498;2023-02-04T01:21:09;97216.16;;;1.58;93.90
57442;BME280;43284;47.042;15.498;2023-02-04T01:23:36;97210.22;;;1.48;93.97
57442;BME280;43284;47.042;15.498;2023-02-04T01:26:02;97217.25;;;1.37;94.08
57442;BME280;43284;47.042;15.498;2023-02-04T01:28:27;97223.16;;;1.45;95.40
57442;BME280;43284;47.042;15.498;2023-02-04T01:30:53;97206.63;;;1.61;93.35
57442;BME280;43284;47.042;15.498;2023-02-04T01:33:19;97202.88;;;1.85;90.39
57442;BME280;43284;47.042;15.498;2023-02-04T01:35:45;97203.63;;;1.95;90.12
57442;BME280;43284;47.042;15.498;2023-02-04T01:38:11;97194.84;;;2.09;88.79
57442;BME280;43284;47.042;15.498;2023-02-04T01:40:36;97182.81;;;2.63;84.01
57442;BME280;43284;47.042;15.498;2023-02-04T01:43:02;97191.31;;;2.70;83.18
57442;BME280;43284;47.042;15.498;2023-02-04T01:45:28;97207.97;;;2.51;84.55
57442;BME280;43284;47.042;15.498;2023-02-04T01:47:57;97200.41;;;2.40;85.31
57442;BME280;43284;47.042;15.498;2023-02-04T01:50:23;97205.00;;;2.21;85.54
57442;BME280;43284;47.042;15.498;2023-02-04T01:52:49;97203.19;;;2.26;85.50
57442;BME280;43284;47.042;15.498;2023-02-04T01:55:18;97190.91;;;2.93;80.73
57442;BME280;43284;47.042;15.498;2023-02-04T01:57:44;97193.81;;;2.75;80.73
57442;BME280;43284;47.042;15.498;2023-02-04T02:00:21;97184.19;;;2.84;79.87
57442;BME280;43284;47.042;15.498;2023-02-04T02:02:49;97197.41;;;2.66;80.84
57442;BME280;43284;47.042;15.498;2023-02-04T02:05:19;97181.00;;;2.68;80.82
57442;BME280;43284;47.042;15.498;2023-02-04T02:07:50;97180.97;;;3.20;78.09
57442;BME280;43284;47.042;15.498;2023-02-04T02:10:17;97180.69;;;3.34;77.08
57442;BME280;43284;47.042;15.498;2023-02-04T02:12:44;97189.63;;;3.17;77.88
57442;BME280;43284;47.042;15.498;2023-02-04T02:15:11;97182.00;;;3.55;75.39
57442;BME280;43284;47.042;15.498;2023-02-04T02:17:37;97183.91;;;3.45;76.10
57442;BME280;43284;47.042;15.498;2023-02-04T02:20:06;97181.41;;;3.40;76.35
57442;BME280;43284;47.042;15.498;2023-02-04T02:25:10;97173.94;;;3.26;77.20
57442;BME280;43284;47.042;15.498;2023-02-04T02:27:36;97180.28;;;3.54;75.28
57442;BME280;43284;47.042;15.498;2023-02-04T02:30:02;97176.50;;;3.28;76.63
57442;BME280;43284;47.042;15.498;2023-02-04T02:32:29;97178.50;;;3.12;76.80
57442;BME280;43284;47.042;15.498;2023-02-04T02:34:54;97173.72;;;2.91;78.51
57442;BME280;43284;47.042;15.498;2023-02-04T02:37:20;97167.72;;;2.90;78.22
57442;BME280;43284;47.042;15.498;2023-02-04T02:39:46;97175.63;;;2.81;78.13
57442;BME280;43284;47.042;15.498;2023-02-04T02:42:16;97171.44;;;3.22;76.53
57442;BME280;43284;47.042;15.498;2023-02-04T02:44:44;97162.47;;;2.96;77.62
57442;BME280;43284;47.042;15.498;2023-02-04T02:47:16;97160.50;;;3.09;77.91
57442;BME280;43284;47.042;15.498;2023-02-04T02:49:43;97151.94;;;3.07;77.52
57442;BME280;43284;47.042;15.498;2023-02-04T02:52:12;97152.22;;;2.92;78.16
57442;BME280;43284;47.042;15.498;2023-02-04T02:54:39;97158.59;;;2.72;79.00
57442;BME280;43284;47.042;15.498;2023-02-04T02:57:19;97156.91;;;2.70;79.63
57442;BME280;43284;47.042;15.498;2023-02-04T02:59:46;97162.34;;;2.53;79.62
57442;BME280;43284;47.042;15.498;2023-02-04T03:02:15;97160.44;;;2.64;79.60
57442;BME280;43284;47.042;15.498;2023-02-04T03:04:46;97158.13;;;2.47;79.73
57442;BME280;43284;47.042;15.498;2023-02-04T03:07:15;97159.59;;;2.62;79.52
57442;BME280;43284;47.042;15.498;2023-02-04T03:09:42;97151.84;;;2.63;79.04
57442;BME280;43284;47.042;15.498;2023-02-04T03:12:08;97156.53;;;2.41;80.77
57442;BME280;43284;47.042;15.498;2023-02-04T03:14:34;97152.78;;;2.59;79.79
57442;BME280;43284;47.042;15.498;2023-02-04T03:17:03;97162.34;;;2.54;80.42
57442;BME280;43284;47.042;15.498;2023-02-04T03:19:32;97162.25;;;2.60;80.10
57442;BME280;43284;47.042;15.498;2023-02-04T03:21:58;97168.06;;;2.70;78.92
57442;BME280;43284;47.042;15.498;2023-02-04T03:24:24;97161.91;;;2.77;78.69
57442;BME280;43284;47.042;15.498;2023-02-04T03:26:50;97171.97;;;2.94;79.07
57442;BME280;43284;47.042;15.498;2023-02-04T03:29:17;97172.94;;;2.87;78.89
57442;BME280;43284;47.042;15.498;2023-02-04T03:31:42;97167.34;;;3.10;77.70
57442;BME280;43284;47.042;15.498;2023-02-04T03:34:08;97166.97;;;2.85;78.87
57442;BME280;43284;47.042;15.498;2023-02-04T03:36:34;97176.28;;;2.94;79.07
57442;BME280;43284;47.042;15.498;2023-02-04T03:39:01;97177.28;;;2.85;78.84
57442;BME280;43284;47.042;15.498;2023-02-04T03:41:28;97176.75;;;2.66;79.48
57442;BME280;43284;47.042;15.498;2023-02-04T03:43:54;97170.28;;;2.92;78.80
57442;BME280;43284;47.042;15.498;2023-02-04T03:46:20;97168.84;;;2.75;78.44
57442;BME280;43284;47.042;15.498;2023-02-04T03:48:48;97165.09;;;2.93;78.69
57442;BME280;43284;47.042;15.498;2023-02-04T03:51:14;97169.63;;;3.25;77.17
57442;BME280;43284;47.042;15.498;2023-02-04T03:53:39;97168.50;;;3.39;76.79
57442;BME280;43284;47.042;15.498;2023-02-04T03:56:05;97175.63;;;3.27;76.81
57442;BME280;43284;47.042;15.498;2023-02-04T03:58:31;97155.53;;;3.43;77.33
57442;BME280;43284;47.042;15.498;2023-02-04T04:00:57;97183.25;;;3.34;77.29
57442;BME280;43284;47.042;15.498;2023-02-04T04:03:22;97181.47;;;3.37;76.42
57442;BME280;43284;47.042;15.498;2023-02-04T04:05:48;97183.66;;;3.12;77.86
57442;BME280;43284;47.042;15.498;2023-02-04T04:08:14;97176.63;;;3.20;78.16
57442;BME280;43284;47.042;15.498;2023-02-04T04:10:39;97191.41;;;3.12;77.94
57442;BME280;43284;47.042;15.498;2023-02-04T04:13:05;97186.78;;;3.29;77.01
57442;BME280;43284;47.042;15.498;2023-02-04T04:15:31;97187.13;;;3.56;76.49
57442;BME280;43284;47.042;15.498;2023-02-04T04:17:56;97192.03;;;3.68;75.44
57442;BME280;43284;47.042;15.498;2023-02-04T04:20:22;97180.88;;;3.66;75.55
57442;BME280;43284;47.042;15.498;2023-02-04T04:22:50;97193.91;;;3.62;75.45
57442;BME280;43284;47.042;15.498;2023-02-04T04:25:16;97211.59;;;3.38;76.77
57442;BME280;43284;47.042;15.498;2023-02-04T04:27:42;97212.94;;;3.58;76.25
57442;BME280;43284;47.042;15.498;2023-02-04T04:30:08;97231.16;;;3.51;76.29
57442;BME280;43284;47.042;15.498;2023-02-04T04:32:34;97228.69;;;3.45;76.63
57442;BME280;43284;47.042;15.498;2023-02-04T04:35:00;97238.25;;;3.40;77.22
57442;BME280;43284;47.042;15.498;2023-02-04T04:37:25;97242.09;;;3.66;76.09
57442;BME280;43284;47.042;15.498;2023-02-04T04:39:51;97257.69;;;3.60;76.05
57442;BME280;43284;47.042;15.498;2023-02-04T04:42:17;97262.97;;;3.54;77.04
57442;BME280;43284;47.042;15.498;2023-02-04T04:44:43;97269.78;;;3.59;76.73
57442;BME280;43284;47.042;15.498;2023-02-04T04:47:08;97272.41;;;3.56;76.59
57442;BME280;43284;47.042;15.498;2023-02-04T04:49:34;97271.28;;;3.69;76.73
57442;BME280;43284;47.042;15.498;2023-02-04T04:51:59;97285.22;;;3.62;76.87
57442;BME280;43284;47.042;15.498;2023-02-04T04:54:25;97286.16;;;3.58;76.53
57442;BME280;43284;47.042;15.498;2023-02-04T04:56:51;97289.44;;;3.68;77.15
57442;BME280;43284;47.042;15.498;2023-02-04T04:59:16;97303.38;;;3.59;77.09
57442;BME280;43284;47.042;15.498;2023-02-04T05:01:42;97305.13;;;3.57;77.14
57442;BME280;43284;47.042;15.498;2023-02-04T05:04:07;97311.34;;;3.47;77.64
57442;BME280;43284;47.042;15.498;2023-02-04T05:06:33;97326.88;;;3.45;78.07
57442;BME280;43284;47.042;15.498;2023-02-04T05:08:59;97336.72;;;3.23;79.46
57442;BME280;43284;47.042;15.498;2023-02-04T05:11:24;97349.59;;;3.28;79.61
57442;BME280;43284;47.042;15.498;2023-02-04T05:13:50;97350.28;;;3.36;79.90
57442;BME280;43284;47.042;15.498;2023-02-04T05:16:15;97353.41;;;3.57;78.47
57442;BME280;43284;47.042;15.498;2023-02-04T05:18:42;97355.00;;;3.62;77.88
57442;BME280;43284;47.042;15.498;2023-02-04T05:21:08;97373.94;;;3.64;78.44
57442;BME280;43284;47.042;15.498;2023-02-04T05:23:34;97372.09;;;3.69;77.57
57442;BME280;43284;47.042;15.498;2023-02-04T05:25:59;97372.06;;;3.74;77.56
57442;BME280;43284;47.042;15.498;2023-02-04T05:28:25;97393.84;;;3.61;78.77
57442;BME280;43284;47.042;15.498;2023-02-04T05:30:51;97374.44;;;3.85;77.80
57442;BME280;43284;47.042;15.498;2023-02-04T05:33:17;97375.25;;;3.87;77.12
57442;BME280;43284;47.042;15.498;2023-02-04T05:35:43;97390.19;;;3.69;78.10
57442;BME280;43284;47.042;15.498;2023-02-04T05:38:08;97401.34;;;3.75;78.72
57442;BME280;43284;47.042;15.498;2023-02-04T05:40:34;97390.50;;;3.53;81.31
57442;BME280;43284;47.042;15.498;2023-02-04T05:42:59;97386.00;;;3.64;79.13
57442;BME280;43284;47.042;15.498;2023-02-04T05:45:25;97370.41;;;3.68;79.61
57442;BME280;43284;47.042;15.498;2023-02-04T05:47:51;97376.41;;;3.70;79.37
57442;BME280;43284;47.042;15.498;2023-02-04T05:50:17;97380.06;;;3.59;80.55
57442;BME280;43284;47.042;15.498;2023-02-04T05:52:42;97385.19;;;3.60;80.37
57442;BME280;43284;47.042;15.498;2023-02-04T05:55:10;97386.19;;;3.55;80.69
57442;BME280;43284;47.042;15.498;2023-02-04T05:57:36;97396.72;;;3.42;81.88
57442;BME280;43284;47.042;15.498;2023-02-04T06:00:04;97369.22;;;3.37;82.27
57442;BME280;43284;47.042;15.498;2023-02-04T06:02:30;97373.78;;;3.21;83.97
57442;BME280;43284;47.042;15.498;2023-02-04T06:04:56;97373.13;;;3.09;84.93
57442;BME280;43284;47.042;15.498;2023-02-04T06:07:21;97379.19;;;3.05;84.77
57442;BME280;43284;47.042;15.498;2023-02-04T06:09:47;97374.84;;;3.11;83.98
57442;BME280;43284;47.042;15.498;2023-02-04T06:12:13;97376.63;;;3.04;83.51
57442;BME280;43284;47.042;15.498;2023-02-04T06:14:38;97390.44;;;3.01;82.68
57442;BME280;43284;47.042;15.498;2023-02-04T06:17:04;97390.88;;;3.31;79.06
57442;BME280;43284;47.042;15.498;2023-02-04T06:19:29;97409.19;;;3.16;80.97
57442;BME280;43284;47.042;15.498;2023-02-04T06:21:55;97415.19;;;3.16;80.15
57442;BME280;43284;47.042;15.498;2023-02-04T06:24:21;97409.13;;;3.20;79.50
57442;BME280;43284;47.042;15.498;2023-02-04T06:26:46;97420.03;;;3.39;77.71
57442;BME280;43284;47.042;15.498;2023-02-04T06:29:12;97432.91;;;3.41;77.15
57442;BME280;43284;47.042;15.498;2023-02-04T06:31:37;97439.06;;;3.32;78.11
57442;BME280;43284;47.042;15.498;2023-02-04T06:34:04;97454.50;;;3.37;76.85
57442;BME280;43284;47.042;15.498;2023-02-04T06:36:30;97476.19;;;3.26;78.18
57442;BME280;43284;47.042;15.498;2023-02-04T06:38:56;97477.13;;;3.21;78.89
57442;BME280;43284;47.042;15.498;2023-02-04T06:41:22;97490.94;;;3.17;79.76
57442;BME280;43284;47.042;15.498;2023-02-04T06:43:48;97493.16;;;3.44;77.90
57442;BME280;43284;47.042;15.498;2023-02-04T06:46:15;97506.22;;;3.32;78.04
57442;BME280;43284;47.042;15.498;2023-02-04T06:48:41;97514.94;;;3.28;78.82
57442;BME280;43284;47.042;15.498;2023-02-04T06:51:06;97522.63;;;3.33;78.08
57442;BME280;43284;47.042;15.498;2023-02-04T06:53:32;97528.63;;;3.32;78.97
57442;BME280;43284;47.042;15.498;2023-02-04T06:55:57;97546.72;;;3.33;79.19
57442;BME280;43284;47.042;15.498;2023-02-04T06:58:23;97538.81;;;3.44;78.87
57442;BME280;43284;47.042;15.498;2023-02-04T07:00:49;97550.84;;;3.45;79.76
57442;BME280;43284;47.042;15.498;2023-02-04T07:03:14;97570.75;;;3.40;80.93
57442;BME280;43284;47.042;15.498;2023-02-04T07:05:40;97567.38;;;3.35;81.43
57442;BME280;43284;47.042;15.498;2023-02-04T07:08:05;97582.38;;;3.06;84.11
57442;BME280;43284;47.042;15.498;2023-02-04T07:10:31;97596.19;;;3.01;84.03
57442;BME280;43284;47.042;15.498;2023-02-04T07:12:57;97598.09;;;2.85;85.30
57442;BME280;43284;47.042;15.498;2023-02-04T07:15:23;97595.69;;;2.70;86.54
57442;BME280;43284;47.042;15.498;2023-02-04T07:17:49;97619.91;;;2.56;87.11
57442;BME280;43284;47.042;15.498;2023-02-04T07:20:14;97633.69;;;2.54;87.09
57442;BME280;43284;47.042;15.498;2023-02-04T07:22:40;97636.31;;;2.44;88.38
57442;BME280;43284;47.042;15.498;2023-02-04T07:25:07;97650.06;;;2.46;89.28
57442;BME280;43284;47.042;15.498;2023-02-04T07:27:33;97655.31;;;2.36;89.44
57442;BME280;43284;47.042;15.498;2023-02-04T07:29:58;97668.22;;;2.37;89.72
57442;BME280;43284;47.042;15.498;2023-02-04T07:32:24;97668.25;;;2.33;90.76
57442;BME280;43284;47.042;15.498;2023-02-04T07:34:52;97677.66;;;2.41;90.14
57442;BME280;43284;47.042;15.498;2023-02-04T07:37:18;97678.50;;;2.40;90.97
57442;BME280;43284;47.042;15.498;2023-02-04T07:39:45;97665.59;;;2.45;90.28
57442;BME280;43284;47.042;15.498;2023-02-04T07:42:10;97673.38;;;2.37;91.38
57442;BME280;43284;47.042;15.498;2023-02-04T07:44:36;97686.28;;;2.37;91.04
57442;BME280;43284;47.042;15.498;2023-02-04T07:47:02;97690.63;;;2.32;91.95
57442;BME280;43284;47.042;15.498;2023-02-04T07:49:27;97679.38;;;2.39;91.18
57442;BME280;43284;47.042;15.498;2023-02-04T07:51:53;97697.47;;;2.33;90.86
57442;BME280;43284;47.042;15.498;2023-02-04T07:54:19;97702.72;;;2.25;92.26
57442;BME280;43284;47.042;15.498;2023-02-04T07:56:44;97706.09;;;2.29;91.80
57442;BME280;43284;47.042;15.498;2023-02-04T07:59:10;97716.41;;;2.31;92.14
57442;BME280;43284;47.042;15.498;2023-02-04T08:01:35;97709.50;;;2.36;92.30
57442;BME280;43284;47.042;15.498;2023-02-04T08:04:01;97733.56;;;2.38;93.11
57442;BME280;43284;47.042;15.498;2023-02-04T08:06:26;97728.44;;;2.36;92.13
57442;BME280;43284;47.042;15.498;2023-02-04T08:08:52;97724.81;;;2.56;91.04
57442;BME280;43284;47.042;15.498;2023-02-04T08:11:18;97748.09;;;2.51;91.79
57442;BME280;43284;47.042;15.498;2023-02-04T08:13:43;97747.22;;;2.49;92.26
57442;BME280;43284;47.042;15.498;2023-02-04T08:16:09;97742.97;;;2.46;91.44
57442;BME280;43284;47.042;15.498;2023-02-04T08:18:35;97764.44;;;2.52;89.67
57442;BME280;43284;47.042;15.498;2023-02-04T08:21:00;97779.06;;;2.54;89.45
57442;BME280;43284;47.042;15.498;2023-02-04T08:23:27;97784.25;;;2.50;89.99
57442;BME280;43284;47.042;15.498;2023-02-04T08:25:52;97799.72;;;2.48;89.63
57442;BME280;43284;47.042;15.498;2023-02-04T08:28:18;97795.47;;;2.41;90.06
57442;BME280;43284;47.042;15.498;2023-02-04T08:30:44;97801.47;;;2.47;90.42
57442;BME280;43284;47.042;15.498;2023-02-04T08:33:09;97810.91;;;2.47;90.43
57442;BME280;43284;47.042;15.498;2023-02-04T08:35:35;97820.41;;;2.43;90.42
57442;BME280;43284;47.042;15.498;2023-02-04T08:38:00;97822.00;;;2.61;87.16
57442;BME280;43284;47.042;15.498;2023-02-04T08:40:26;97817.63;;;2.71;86.13
57442;BME280;43284;47.042;15.498;2023-02-04T08:42:52;97822.44;;;3.20;78.36
57442;BME280;43284;47.042;15.498;2023-02-04T08:45:17;97815.47;;;3.28;74.43
57442;BME280;43284;47.042;15.498;2023-02-04T08:47:43;97806.69;;;3.45;75.69
57442;BME280;43284;47.042;15.498;2023-02-04T08:50:09;97819.34;;;3.69;72.66
57442;BME280;43284;47.042;15.498;2023-02-04T08:52:35;97828.78;;;3.77;70.26
57442;BME280;43284;47.042;15.498;2023-02-04T08:55:01;97832.19;;;3.80;67.78
57442;BME280;43284;47.042;15.498;2023-02-04T08:57:27;97837.19;;;3.96;69.41
57442;BME280;43284;47.042;15.498;2023-02-04T08:59:52;97849.22;;;4.00;64.91
57442;BME280;43284;47.042;15.498;2023-02-04T09:02:18;97860.38;;;4.05;61.88
57442;BME280;43284;47.042;15.498;2023-02-04T09:04:43;97845.59;;;4.16;62.00
57442;BME280;43284;47.042;15.498;2023-02-04T09:07:09;97849.03;;;4.17;59.02
57442;BME280;43284;47.042;15.498;2023-02-04T09:09:35;97853.53;;;4.01;63.41
57442;BME280;43284;47.042;15.498;2023-02-04T09:12:00;97868.16;;;4.03;62.66
57442;BME280;43284;47.042;15.498;2023-02-04T09:14:27;97897.16;;;4.31;61.25
57442;BME280;43284;47.042;15.498;2023-02-04T09:16:53;97871.16;;;4.42;58.89
57442;BME280;43284;47.042;15.498;2023-02-04T09:19:18;97871.84;;;4.55;57.31
57442;BME280;43284;47.042;15.498;2023-02-04T09:21:52;97882.97;;;4.62;55.88
57442;BME280;43284;47.042;15.498;2023-02-04T09:24:18;97893.22;;;4.68;55.69
57442;BME280;43284;47.042;15.498;2023-02-04T09:26:47;97899.31;;;4.65;53.10
57442;BME280;43284;47.042;15.498;2023-02-04T09:29:13;97920.81;;;4.72;53.44
57442;BME280;43284;47.042;15.498;2023-02-04T09:31:39;97912.25;;;4.68;52.48
57442;BME280;43284;47.042;15.498;2023-02-04T09:34:05;97924.22;;;4.75;54.85
57442;BME280;43284;47.042;15.498;2023-02-04T09:36:30;97938.09;;;4.70;51.39
57442;BME280;43284;47.042;15.498;2023-02-04T09:39:03;97931.91;;;4.83;50.85
57442;BME280;43284;47.042;15.498;2023-02-04T09:41:31;97948.50;;;4.65;52.04
57442;BME280;43284;47.042;15.498;2023-02-04T09:43:58;97958.00;;;4.66;53.07
57442;BME280;43284;47.042;15.498;2023-02-04T09:46:25;97968.31;;;4.71;52.66
57442;BME280;43284;47.042;15.498;2023-02-04T09:48:55;97982.06;;;4.76;52.40
57442;BME280;43284;47.042;15.498;2023-02-04T09:51:25;97981.19;;;4.75;50.33
57442;BME280;43284;47.042;15.498;2023-02-04T09:53:53;97971.75;;;4.71;50.99
57442;BME280;43284;47.042;15.498;2023-02-04T09:56:21;98001.94;;;4.74;51.56
57442;BME280;43284;47.042;15.498;2023-02-04T09:58:46;97991.63;;;4.68;52.52
57442;BME280;43284;47.042;15.498;2023-02-04T10:01:17;97995.13;;;4.67;50.38
57442;BME280;43284;47.042;15.498;2023-02-04T10:03:45;98012.44;;;4.60;50.67
57442;BME280;43284;47.042;15.498;2023-02-04T10:06:22;98017.69;;;4.57;52.16
57442;BME280;43284;47.042;15.498;2023-02-04T10:08:49;98039.19;;;4.61;50.69
57442;BME280;43284;47.042;15.498;2023-02-04T10:11:17;98036.56;;;4.67;51.02
57442;BME280;43284;47.042;15.498;2023-02-04T10:13:46;98044.25;;;4.71;53.57
57442;BME280;43284;47.042;15.498;2023-02-04T10:16:32;98051.44;;;4.45;53.56
57442;BME280;43284;47.042;15.498;2023-02-04T10:19:02;98058.41;;;4.38;54.05
57442;BME280;43284;47.042;15.498;2023-02-04T10:21:33;98070.56;;;4.30;55.25
57442;BME280;43284;47.042;15.498;2023-02-04T10:24:04;98080.91;;;4.28;55.91
57442;BME280;43284;47.042;15.498;2023-02-04T10:26:31;98069.72;;;4.28;56.72
57442;BME280;43284;47.042;15.498;2023-02-04T10:29:03;98082.44;;;4.52;55.76
57442;BME280;43284;47.042;15.498;2023-02-04T10:31:40;98083.44;;;4.38;55.92
57442;BME280;43284;47.042;15.498;2023-02-04T10:36:40;98082.38;;;4.60;55.77
57442;BME280;43284;47.042;15.498;2023-02-04T10:39:23;98079.94;;;4.45;57.03
57442;BME280;43284;47.042;15.498;2023-02-04T10:41:59;98079.97;;;4.37;53.59
57442;BME280;43284;47.042;15.498;2023-02-04T10:44:30;98074.81;;;4.37;55.45
57442;BME280;43284;47.042;15.498;2023-02-04T10:47:05;98073.84;;;4.50;56.41
57442;BME280;43284;47.042;15.498;2023-02-04T10:49:33;98072.09;;;4.51;54.10
57442;BME280;43284;47.042;15.498;2023-02-04T10:52:00;98057.16;;;4.76;54.33
57442;BME280;43284;47.042;15.498;2023-02-04T10:54:34;98066.56;;;4.86;54.29
57442;BME280;43284;47.042;15.498;2023-02-04T10:57:18;98072.75;;;4.74;54.11
57442;BME280;43284;47.042;15.498;2023-02-04T10:59:47;98051.06;;;4.80;52.09
57442;BME280;43284;47.042;15.498;2023-02-04T11:03:18;98070.09;;;4.79;53.74
57442;BME280;43284;47.042;15.498;2023-02-04T11:05:24;98064.06;;;4.77;53.28
57442;BME280;43284;47.042;15.498;2023-02-04T11:07:53;98054.63;;;4.70;52.40
57442;BME280;43284;47.042;15.498;2023-02-04T11:10:22;98062.50;;;4.64;51.71
57442;BME280;43284;47.042;15.498;2023-02-04T11:15:45;98052.75;;;4.86;49.79
57442;BME280;43284;47.042;15.498;2023-02-04T11:20:51;98065.63;;;4.92;53.75
57442;BME280;43284;47.042;15.498;2023-02-04T11:26:08;98077.19;;;5.34;52.43
57442;BME280;43284;47.042;15.498;2023-02-04T11:33:50;98049.06;;;5.04;49.16
57442;BME280;43284;47.042;15.498;2023-02-04T11:36:26;98052.13;;;5.33;53.67
57442;BME280;43284;47.042;15.498;2023-02-04T11:38:52;98063.41;;;5.32;53.06
57442;BME280;43284;47.042;15.498;2023-02-04T11:41:27;98055.81;;;5.19;51.03
57442;BME280;43284;47.042;15.498;2023-02-04T11:43:54;98041.75;;;5.38;52.04
57442;BME280;43284;47.042;15.498;2023-02-04T11:46:20;98051.59;;;5.10;48.97
57442;BME280;43284;47.042;15.498;2023-02-04T11:48:52;98084.13;;;4.57;49.04
57442;BME280;43284;47.042;15.498;2023-02-04T11:51:22;98078.81;;;4.70;47.06
57442;BME280;43284;47.042;15.498;2023-02-04T11:53:51;98064.56;;;5.10;50.81
57442;BME280;43284;47.042;15.498;2023-02-04T11:56:18;98082.66;;;5.13;47.74
57442;BME280;43284;47.042;15.498;2023-02-04T11:58:45;98081.31;;;4.81;46.08
57442;BME280;43284;47.042;15.498;2023-02-04T12:01:32;98080.38;;;4.85;47.09
57442;BME280;43284;47.042;15.498;2023-02-04T12:04:00;98080.19;;;5.01;45.64
57442;BME280;43284;47.042;15.498;2023-02-04T12:06:31;98083.69;;;4.98;45.90
57442;BME280;43284;47.042;15.498;2023-02-04T12:09:23;98088.28;;;4.71;43.70
57442;BME280;43284;47.042;15.498;2023-02-04T12:11:57;98070.97;;;4.77;42.31
57442;BME280;43284;47.042;15.498;2023-02-04T12:14:29;98081.81;;;5.12;42.68
57442;BME280;43284;47.042;15.498;2023-02-04T12:16:55;98074.97;;;5.05;41.34
57442;BME280;43284;47.042;15.498;2023-02-04T12:19:21;98094.00;;;5.03;41.40
57442;BME280;43284;47.042;15.498;2023-02-04T12:21:47;98084.75;;;4.82;40.46
57442;BME280;43284;47.042;15.498;2023-02-04T12:24:13;98084.41;;;5.09;43.98
57442;BME280;43284;47.042;15.498;2023-02-04T12:26:38;98098.25;;;5.08;41.50
57442;BME280;43284;47.042;15.498;2023-02-04T12:29:04;98079.03;;;5.26;41.99
57442;BME280;43284;47.042;15.498;2023-02-04T12:31:30;98076.25;;;5.42;40.12
57442;BME280;43284;47.042;15.498;2023-02-04T12:33:57;98079.88;;;5.28;39.07
57442;BME280;43284;47.042;15.498;2023-02-04T12:36:23;98093.34;;;5.56;42.64
57442;BME280;43284;47.042;15.498;2023-02-04T12:38:49;98097.47;;;5.71;41.32
57442;BME280;43284;47.042;15.498;2023-02-04T12:41:14;98096.47;;;5.80;38.38
57442;BME280;43284;47.042;15.498;2023-02-04T12:43:39;98102.03;;;5.51;40.23
57442;BME280;43284;47.042;15.498;2023-02-04T12:46:05;98094.94;;;5.65;42.14
57442;BME280;43284;47.042;15.498;2023-02-04T12:48:30;98089.69;;;5.68;39.45
57442;BME280;43284;47.042;15.498;2023-02-04T12:50:56;98085.25;;;5.78;40.97
57442;BME280;43284;47.042;15.498;2023-02-04T12:53:21;98084.91;;;6.03;40.96
57442;BME280;43284;47.042;15.498;2023-02-04T12:55:47;98083.91;;;6.11;38.92
57442;BME280;43284;47.042;15.498;2023-02-04T12:58:13;98099.66;;;5.99;39.09
57442;BME280;43284;47.042;15.498;2023-02-04T13:00:38;98089.31;;;5.97;38.58
57442;BME280;43284;47.042;15.498;2023-02-04T13:03:05;98088.34;;;6.03;38.61
57442;BME280;43284;47.042;15.498;2023-02-04T13:05:30;98093.75;;;5.88;38.29
57442;BME280;43284;47.042;15.498;2023-02-04T13:07:56;98091.84;;;6.04;39.70
57442;BME280;43284;47.042;15.498;2023-02-04T13:10:22;98104.41;;;6.30;39.64
57442;BME280;43284;47.042;15.498;2023-02-04T13:12:49;98099.25;;;6.27;41.05
57442;BME280;43284;47.042;15.498;2023-02-04T13:15:14;98103.59;;;6.25;37.95
57442;BME280;43284;47.042;15.498;2023-02-04T13:17:40;98106.00;;;6.38;39.19